createdAt,value
2018-07-25T00:00:21.090Z,13.07
2018-07-25T00:02:48.747Z,11.30
2018-07-25T00:05:16.365Z,17.33
2018-07-25T00:07:43.967Z,15.10
2018-07-25T00:10:11.570Z,16.37
2018-07-25T00:12:39.147Z,14.37
2018-07-25T00:15:06.790Z,40.57
2018-07-25T00:17:34.457Z,34.50
2018-07-25T00:20:02.229Z,40.40
2018-07-25T00:22:29.847Z,38.23
2018-07-25T00:24:57.451Z,38.67
2018-07-25T00:27:25.127Z,30.60
2018-07-25T00:29:52.755Z,32.50
2018-07-25T00:32:20.369Z,32.13
2018-07-25T00:34:48.081Z,24.17
2018-07-25T00:37:15.694Z,25.70
2018-07-25T00:39:43.302Z,18.40
2018-07-25T00:42:10.893Z,17.33
2018-07-25T00:44:38.501Z,11.33
2018-07-25T00:47:06.090Z,11.00
2018-07-25T00:49:33.730Z,9.40
2018-07-25T00:52:01.366Z,10.37
2018-07-25T00:54:29.019Z,9.83
2018-07-25T00:56:56.604Z,13.20
2018-07-25T00:59:24.210Z,10.07
2018-07-25T01:01:51.771Z,8.90
2018-07-25T01:04:19.695Z,9.30
2018-07-25T01:06:47.301Z,13.90
2018-07-25T01:09:14.901Z,6.83
2018-07-25T01:11:42.515Z,6.63
2018-07-25T01:14:10.118Z,12.37
2018-07-25T01:16:38.353Z,9.57
2018-07-25T01:19:05.980Z,9.23
2018-07-25T01:21:33.607Z,18.03
2018-07-25T01:24:01.271Z,7.03
2018-07-25T01:26:28.869Z,7.30
2018-07-25T01:28:56.506Z,11.90
2018-07-25T01:31:24.157Z,7.93
2018-07-25T01:33:51.736Z,9.63
2018-07-25T01:36:19.361Z,12.90
2018-07-25T01:38:46.921Z,8.70
2018-07-25T01:41:14.460Z,7.60
2018-07-25T01:43:42.028Z,9.03
2018-07-25T01:46:09.618Z,13.37
2018-07-25T01:48:37.222Z,13.73
2018-07-25T01:51:05.498Z,15.00
2018-07-25T01:53:33.042Z,14.90
2018-07-25T01:56:00.583Z,23.30
2018-07-25T01:58:28.237Z,23.63
2018-07-25T02:00:55.829Z,17.30
2018-07-25T02:03:23.388Z,14.83
2018-07-25T02:05:51.001Z,14.90
2018-07-25T02:08:18.588Z,12.97
2018-07-25T02:10:48.658Z,9.70
2018-07-25T02:13:16.599Z,8.87
2018-07-25T02:15:45.062Z,10.10
2018-07-25T02:18:12.694Z,8.03
2018-07-25T02:20:40.349Z,13.73
2018-07-25T02:23:07.989Z,8.80
2018-07-25T02:25:35.615Z,12.87
2018-07-25T02:28:03.203Z,12.00
2018-07-25T02:30:30.851Z,7.50
2018-07-25T02:32:58.509Z,9.93
2018-07-25T02:35:26.135Z,11.00
2018-07-25T02:37:53.731Z,11.33
2018-07-25T02:40:21.361Z,13.10
2018-07-25T02:42:49.010Z,8.77
2018-07-25T02:45:16.635Z,14.20
2018-07-25T02:47:44.467Z,7.57
2018-07-25T02:50:12.150Z,11.20
2018-07-25T02:52:39.739Z,8.10
2018-07-25T02:55:07.874Z,7.53
2018-07-25T02:57:35.554Z,10.73
2018-07-25T03:00:04.171Z,7.40
2018-07-25T03:02:31.714Z,8.70
2018-07-25T03:04:59.378Z,9.70
2018-07-25T03:07:27.007Z,8.37
2018-07-25T03:09:54.584Z,7.67
2018-07-25T03:12:22.224Z,11.90
2018-07-25T03:14:49.793Z,13.63
2018-07-25T03:17:17.566Z,9.20
2018-07-25T03:19:45.215Z,10.77
2018-07-25T03:22:12.765Z,9.40
2018-07-25T03:24:40.505Z,16.13
2018-07-25T03:27:08.130Z,11.87
2018-07-25T03:29:35.740Z,10.40
2018-07-25T03:32:03.386Z,11.03
2018-07-25T03:34:31.022Z,8.23
2018-07-25T03:36:58.687Z,6.93
2018-07-25T03:39:26.281Z,8.10
2018-07-25T03:41:53.982Z,10.90
2018-07-25T03:44:21.637Z,8.10
2018-07-25T03:46:49.260Z,7.20
2018-07-25T03:49:16.879Z,11.63
2018-07-25T03:51:44.554Z,12.07
2018-07-25T03:54:12.142Z,11.47
2018-07-25T03:56:39.774Z,8.83
2018-07-25T03:59:07.372Z,10.10
2018-07-25T04:01:35.032Z,10.07
2018-07-25T04:04:02.740Z,11.20
2018-07-25T04:06:30.399Z,12.53
2018-07-25T04:08:57.952Z,9.70
2018-07-25T04:11:25.596Z,9.53
2018-07-25T04:13:53.305Z,11.20
2018-07-25T04:16:20.874Z,7.43
2018-07-25T04:18:49.534Z,7.87
2018-07-25T04:21:17.142Z,15.83
2018-07-25T04:23:44.784Z,8.07
2018-07-25T04:26:12.444Z,11.20
2018-07-25T04:28:40.092Z,6.60
2018-07-25T04:31:07.704Z,12.53
2018-07-25T04:33:35.426Z,11.00
2018-07-25T04:36:02.964Z,5.77
2018-07-25T04:38:30.546Z,9.97
2018-07-25T04:40:58.297Z,11.50
2018-07-25T04:43:25.938Z,13.00
2018-07-25T04:45:53.522Z,9.57
2018-07-25T04:48:21.203Z,11.60
2018-07-25T04:50:48.814Z,13.40
2018-07-25T04:53:16.390Z,9.33
2018-07-25T04:55:43.994Z,9.53
2018-07-25T04:58:11.591Z,8.67
2018-07-25T05:00:39.245Z,8.03
2018-07-25T05:03:07.544Z,8.70
2018-07-25T05:05:35.382Z,8.50
2018-07-25T05:08:02.998Z,12.63
2018-07-25T05:10:30.768Z,7.90
2018-07-25T05:12:59.595Z,13.40
2018-07-25T05:15:27.187Z,11.63
2018-07-25T05:17:54.851Z,7.73
2018-07-25T05:20:22.574Z,9.43
2018-07-25T05:22:50.353Z,8.23
2018-07-25T05:25:18.125Z,8.60
2018-07-25T05:27:45.727Z,8.13
2018-07-25T05:30:13.385Z,12.33
2018-07-25T05:32:40.977Z,11.73
2018-07-25T05:35:08.717Z,8.43
2018-07-25T05:37:36.271Z,11.30
2018-07-25T05:40:04.627Z,7.93
2018-07-25T05:42:32.249Z,7.60
2018-07-25T05:45:00.163Z,16.03
2018-07-25T05:47:27.785Z,7.40
2018-07-25T05:49:55.460Z,23.77
2018-07-25T05:52:23.145Z,9.07
2018-07-25T05:54:50.751Z,9.03
2018-07-25T05:57:18.773Z,7.70
2018-07-25T05:59:46.409Z,7.90
2018-07-25T06:02:14.010Z,6.53
2018-07-25T06:04:41.634Z,7.70
2018-07-25T06:07:09.266Z,9.00
2018-07-25T06:09:37.162Z,9.07
2018-07-25T06:12:05.033Z,9.83
2018-07-25T06:14:32.808Z,12.10
2018-07-25T06:17:00.424Z,11.20
2018-07-25T06:19:28.063Z,11.20
2018-07-25T06:21:55.898Z,9.83
2018-07-25T06:24:23.566Z,6.17
2018-07-25T06:26:51.180Z,10.73
2018-07-25T06:29:19.048Z,6.60
2018-07-25T06:31:46.652Z,9.60
2018-07-25T06:34:14.365Z,10.67
2018-07-25T06:36:42.014Z,7.73
2018-07-25T06:39:11.484Z,10.00
2018-07-25T06:41:39.357Z,10.73
2018-07-25T06:44:07.785Z,12.30
2018-07-25T06:46:35.441Z,6.60
2018-07-25T06:49:03.698Z,12.00
2018-07-25T06:51:31.393Z,19.70
2018-07-25T06:53:59.071Z,10.87
2018-07-25T06:56:26.734Z,11.17
2018-07-25T06:58:54.380Z,7.10
2018-07-25T07:01:22.039Z,17.40
2018-07-25T07:03:49.660Z,5.37
2018-07-25T07:06:17.338Z,10.93
2018-07-25T07:08:44.925Z,12.10
2018-07-25T07:11:12.542Z,12.67
2018-07-25T07:13:40.187Z,24.53
2018-07-25T07:16:07.848Z,11.93
2018-07-25T07:18:35.512Z,14.87
2018-07-25T07:21:03.225Z,18.77
2018-07-25T07:23:30.872Z,15.47
2018-07-25T07:25:58.661Z,14.90
2018-07-25T07:28:26.341Z,8.43
2018-07-25T07:30:54.230Z,12.33
2018-07-25T07:33:41.440Z,11.23
2018-07-25T07:36:09.373Z,15.07
2018-07-25T07:38:36.984Z,9.80
2018-07-25T07:41:04.582Z,13.37
2018-07-25T07:43:32.260Z,8.50
2018-07-25T07:45:59.982Z,10.73
2018-07-25T07:48:34.487Z,9.50
2018-07-25T07:51:02.106Z,9.67
2018-07-25T07:53:29.795Z,11.30
2018-07-25T07:55:57.359Z,13.57
2018-07-25T07:58:24.975Z,9.77
2018-07-25T08:00:52.595Z,16.87
2018-07-25T08:03:20.229Z,23.83
2018-07-25T08:05:47.910Z,9.33
2018-07-25T08:08:15.557Z,14.27
2018-07-25T08:10:43.319Z,12.20
2018-07-25T08:13:10.821Z,17.07
2018-07-25T08:15:39.084Z,4.83
2018-07-25T08:18:13.438Z,4.53
2018-07-25T08:20:41.169Z,7.37
2018-07-25T08:23:08.863Z,10.40
2018-07-25T08:25:36.635Z,6.20
2018-07-25T08:28:04.309Z,7.53
2018-07-25T08:30:31.983Z,7.63
2018-07-25T08:32:59.615Z,4.47
2018-07-25T08:35:27.276Z,6.70
2018-07-25T08:37:54.853Z,4.17
2018-07-25T08:40:26.885Z,5.00
2018-07-25T08:43:00.634Z,6.13
2018-07-25T08:45:31.118Z,6.93
2018-07-25T08:48:02.730Z,10.50
2018-07-25T08:50:35.101Z,6.53
2018-07-25T08:53:06.614Z,3.43
2018-07-25T08:55:41.056Z,4.73
2018-07-25T08:58:15.712Z,6.43
2018-07-25T09:00:49.417Z,8.20
2018-07-25T09:03:18.467Z,9.10
2018-07-25T09:05:50.713Z,2.63
2018-07-25T09:08:24.516Z,6.93
2018-07-25T09:10:58.149Z,8.40
2018-07-25T09:13:31.669Z,7.03
2018-07-25T09:16:05.513Z,3.47
2018-07-25T09:18:37.468Z,4.20
2018-07-25T09:21:12.904Z,8.73
2018-07-25T09:23:52.076Z,8.30
2018-07-25T09:26:29.236Z,3.00
2018-07-25T09:29:05.550Z,3.57
2018-07-25T09:31:41.183Z,3.23
2018-07-25T09:34:21.773Z,4.60
2018-07-25T09:37:02.418Z,5.00
2018-07-25T09:39:47.412Z,4.63
2018-07-25T09:42:21.311Z,5.33
2018-07-25T09:45:00.719Z,3.37
2018-07-25T09:47:36.677Z,3.63
2018-07-25T09:50:15.314Z,7.40
2018-07-25T09:52:49.043Z,2.83
2018-07-25T09:55:27.476Z,5.60
2018-07-25T09:58:01.380Z,4.57
2018-07-25T10:00:41.079Z,3.77
2018-07-25T10:03:20.028Z,6.03
2018-07-25T10:06:01.725Z,6.10
2018-07-25T10:08:38.289Z,8.00
2018-07-25T10:11:12.757Z,7.53
2018-07-25T10:13:48.937Z,4.17
2018-07-25T10:16:23.441Z,2.70
2018-07-25T10:19:01.435Z,5.87
2018-07-25T10:21:49.787Z,4.83
2018-07-25T10:24:26.927Z,4.00
2018-07-25T10:27:01.115Z,3.03
2018-07-25T10:29:34.945Z,4.17
2018-07-25T10:32:09.246Z,5.37
2018-07-25T10:34:44.738Z,6.03
2018-07-25T10:37:18.900Z,7.03
2018-07-25T10:39:55.115Z,3.50
2018-07-25T10:42:29.604Z,15.17
2018-07-25T10:45:03.861Z,3.90
2018-07-25T10:47:41.860Z,4.57
2018-07-25T10:50:19.871Z,4.60
2018-07-25T10:52:58.292Z,4.17
2018-07-25T10:55:41.621Z,3.93
2018-07-25T10:58:14.949Z,6.93
2018-07-25T11:00:48.559Z,3.53
2018-07-25T11:03:30.576Z,2.87
2018-07-25T11:06:06.366Z,1.90
2018-07-25T11:08:44.754Z,2.10
2018-07-25T11:11:21.053Z,2.20
2018-07-25T11:13:56.462Z,2.50
2018-07-25T11:16:30.970Z,2.77
2018-07-25T11:19:05.385Z,5.40
2018-07-25T11:21:40.418Z,7.80
2018-07-25T11:24:24.437Z,2.40
2018-07-25T11:26:59.656Z,2.40
2018-07-25T11:29:37.975Z,3.30
2018-07-25T11:32:05.801Z,2.03
2018-07-25T11:34:33.452Z,2.33
2018-07-25T11:37:01.185Z,6.33
2018-07-25T11:39:29.274Z,3.27
2018-07-25T11:41:56.944Z,3.10
2018-07-25T11:44:24.497Z,2.50
2018-07-25T11:46:52.121Z,1.97
2018-07-25T11:49:19.735Z,3.90
2018-07-25T11:51:47.405Z,1.53
2018-07-25T11:54:15.287Z,4.70
2018-07-25T11:56:42.928Z,2.13
2018-07-25T11:59:10.470Z,4.90
2018-07-25T12:01:38.212Z,3.33
2018-07-25T12:04:05.845Z,7.70
2018-07-25T12:06:33.512Z,1.90
2018-07-25T12:09:01.176Z,1.83
2018-07-25T12:11:28.842Z,2.23
2018-07-25T12:13:56.412Z,1.63
2018-07-25T12:16:24.038Z,4.90
2018-07-25T12:18:51.666Z,2.03
2018-07-25T12:21:19.432Z,3.70
2018-07-25T12:23:46.958Z,3.27
2018-07-25T12:26:14.674Z,3.03
2018-07-25T12:28:42.325Z,2.37
2018-07-25T12:31:09.946Z,5.63
2018-07-25T12:33:37.601Z,1.73
2018-07-25T12:36:05.729Z,1.47
2018-07-25T12:38:33.335Z,2.10
2018-07-25T12:41:00.959Z,1.60
2018-07-25T12:43:28.623Z,1.40
2018-07-25T12:45:56.261Z,3.53
2018-07-25T12:48:23.958Z,1.30
2018-07-25T12:50:51.593Z,1.57
2018-07-25T12:53:19.334Z,3.50
2018-07-25T12:55:46.941Z,1.60
2018-07-25T12:58:21.415Z,1.43
2018-07-25T13:00:50.507Z,4.90
2018-07-25T13:03:18.181Z,3.30
2018-07-25T13:05:47.326Z,2.10
2018-07-25T13:08:14.970Z,4.80
2018-07-25T13:10:42.602Z,2.10
2018-07-25T13:13:10.372Z,2.20
2018-07-25T13:15:38.088Z,3.10
2018-07-25T13:18:05.829Z,2.00
2018-07-25T13:20:33.654Z,3.50
2018-07-25T13:23:01.435Z,2.60
2018-07-25T13:25:29.133Z,5.30
2018-07-25T13:27:56.935Z,1.70
2018-07-25T13:30:24.671Z,6.43
2018-07-25T13:32:52.409Z,5.90
2018-07-25T13:35:20.073Z,6.33
2018-07-25T13:37:47.711Z,2.33
2018-07-25T13:40:15.427Z,2.50
2018-07-25T13:42:43.115Z,2.57
2018-07-25T13:45:10.854Z,2.10
2018-07-25T13:47:38.640Z,3.73
2018-07-25T13:50:06.399Z,4.03
2018-07-25T13:52:34.245Z,4.10
2018-07-25T13:55:01.955Z,5.73
2018-07-25T13:57:29.736Z,2.90
2018-07-25T13:59:57.451Z,1.50
2018-07-25T14:02:25.076Z,2.13
2018-07-25T14:04:52.821Z,2.73
2018-07-25T14:07:20.404Z,4.03
2018-07-25T14:09:48.064Z,2.33
2018-07-25T14:12:16.166Z,1.93
2018-07-25T14:14:43.939Z,2.03
2018-07-25T14:17:11.709Z,1.30
2018-07-25T14:19:39.338Z,1.50
2018-07-25T14:22:07.058Z,2.13
2018-07-25T14:24:34.787Z,1.50
2018-07-25T14:27:02.360Z,5.00
2018-07-25T14:29:30.054Z,2.30
2018-07-25T14:31:57.650Z,2.40
2018-07-25T14:34:25.621Z,4.90
2018-07-25T14:36:53.286Z,1.53
2018-07-25T14:39:21.061Z,2.63
2018-07-25T14:41:48.749Z,1.70
2018-07-25T14:44:16.423Z,1.53
2018-07-25T14:46:44.278Z,1.67
2018-07-25T14:49:11.969Z,2.03
2018-07-25T14:51:39.651Z,2.03
2018-07-25T14:54:07.303Z,1.77
2018-07-25T14:56:34.992Z,4.40
2018-07-25T14:59:03.117Z,2.07
2018-07-25T15:01:30.825Z,4.23
2018-07-25T15:03:58.498Z,2.77
2018-07-25T15:06:26.149Z,2.13
2018-07-25T15:08:53.905Z,1.97
2018-07-25T15:11:21.605Z,9.63
2018-07-25T15:13:49.282Z,1.67
2018-07-25T15:16:17.280Z,1.50
2018-07-25T15:18:44.918Z,1.90
2018-07-25T15:21:12.518Z,1.70
2018-07-25T15:23:56.111Z,4.50
2018-07-25T15:26:23.840Z,2.13
2018-07-25T15:28:51.518Z,2.60
2018-07-25T15:31:19.364Z,2.90
2018-07-25T15:33:47.226Z,6.77
2018-07-25T15:36:50.935Z,2.13
2018-07-25T15:39:20.985Z,3.53
2018-07-25T15:41:49.445Z,3.20
2018-07-25T15:44:18.117Z,1.73
2018-07-25T15:46:45.814Z,2.93
2018-07-25T15:49:13.493Z,9.90
2018-07-25T15:51:41.210Z,23.33
2018-07-25T15:54:08.909Z,11.27
2018-07-25T15:56:37.181Z,15.00
2018-07-25T15:59:05.148Z,5.97
2018-07-25T16:01:33.028Z,7.17
2018-07-25T16:04:01.233Z,8.37
2018-07-25T16:06:29.633Z,9.80
2018-07-25T16:08:57.524Z,4.20
2018-07-25T16:11:25.319Z,5.60
2018-07-25T16:13:53.027Z,5.40
2018-07-25T16:16:21.079Z,10.23
2018-07-25T16:18:49.311Z,4.53
2018-07-25T16:21:17.703Z,5.47
2018-07-25T16:23:45.397Z,6.33
2018-07-25T16:26:13.174Z,9.93
2018-07-25T16:28:40.955Z,3.63
2018-07-25T16:31:09.686Z,5.80
2018-07-25T16:33:37.482Z,3.40
2018-07-25T16:36:05.560Z,5.17
2018-07-25T16:38:33.254Z,4.80
2018-07-25T16:41:00.947Z,6.70
2018-07-25T16:43:28.665Z,4.40
2018-07-25T16:45:56.328Z,2.17
2018-07-25T16:48:24.046Z,2.67
2018-07-25T16:50:51.671Z,4.93
2018-07-25T16:53:19.436Z,4.40
2018-07-25T16:55:47.304Z,3.93
2018-07-25T16:58:14.982Z,2.10
2018-07-25T17:00:42.628Z,2.20
2018-07-25T17:03:10.287Z,2.90
2018-07-25T17:05:38.285Z,1.83
2018-07-25T17:08:06.140Z,1.83
2018-07-25T17:10:34.826Z,2.10
2018-07-25T17:13:02.583Z,1.47
2018-07-25T17:15:30.329Z,23.23
2018-07-25T17:17:58.231Z,1.70
2018-07-25T17:20:26.108Z,6.00
2018-07-25T17:22:54.299Z,4.17
2018-07-25T17:25:22.117Z,4.40
2018-07-25T17:27:49.839Z,1.87
2018-07-25T17:30:17.696Z,1.53
2018-07-25T17:32:45.409Z,2.03
2018-07-25T17:35:13.176Z,1.70
2018-07-25T17:37:40.959Z,5.00
2018-07-25T17:40:08.705Z,2.47
2018-07-25T17:42:36.453Z,3.30
2018-07-25T17:45:07.145Z,4.23
2018-07-25T17:47:35.902Z,5.40
2018-07-25T17:50:05.254Z,5.10
2018-07-25T17:52:33.168Z,3.90
2018-07-25T17:55:01.011Z,4.87
2018-07-25T17:57:28.757Z,2.80
2018-07-25T17:59:56.703Z,3.30
2018-07-25T18:02:24.559Z,3.07
2018-07-25T18:04:52.330Z,4.60
2018-07-25T18:07:20.074Z,2.70
2018-07-25T18:09:47.890Z,2.33
2018-07-25T18:12:15.618Z,2.67
2018-07-25T18:14:43.608Z,3.97
2018-07-25T18:17:11.470Z,8.60
2018-07-25T18:19:39.272Z,5.40
2018-07-25T18:22:07.367Z,3.97
2018-07-25T18:24:35.244Z,6.50
2018-07-25T18:27:02.963Z,2.80
2018-07-25T18:29:30.902Z,3.10
2018-07-25T18:31:58.835Z,4.37
2018-07-25T18:34:26.638Z,4.27
2018-07-25T18:36:54.416Z,3.90
2018-07-25T18:39:22.294Z,3.67
2018-07-25T18:41:50.070Z,3.10
2018-07-25T18:44:19.000Z,11.80
2018-07-25T18:46:46.782Z,6.37
2018-07-25T18:49:15.025Z,5.77
2018-07-25T18:51:42.886Z,5.57
2018-07-25T18:54:11.056Z,6.90
2018-07-25T18:56:39.874Z,7.10
2018-07-25T18:59:07.630Z,6.60
2018-07-25T19:01:35.341Z,4.13
2018-07-25T19:04:03.122Z,10.40
2018-07-25T19:06:31.084Z,6.73
2018-07-25T19:08:59.014Z,11.03
2018-07-25T19:11:27.744Z,4.37
2018-07-25T19:14:01.421Z,4.90
2018-07-25T19:16:29.170Z,6.30
2018-07-25T19:18:57.218Z,3.93
2018-07-25T19:21:26.725Z,8.20
2018-07-25T19:23:54.855Z,5.83
2018-07-25T19:26:22.650Z,5.40
2018-07-25T19:28:50.489Z,6.07
2018-07-25T19:31:18.634Z,3.97
2018-07-25T19:33:46.490Z,3.97
2018-07-25T19:36:14.260Z,9.93
2018-07-25T19:38:42.724Z,5.47
2018-07-25T19:41:10.746Z,6.53
2018-07-25T19:43:38.548Z,3.47
2018-07-25T19:46:06.578Z,6.00
2018-07-25T19:48:34.436Z,5.07
2018-07-25T19:51:02.230Z,3.83
2018-07-25T19:53:29.968Z,4.57
2018-07-25T19:55:59.581Z,6.53
2018-07-25T19:58:27.637Z,5.50
2018-07-25T20:00:55.441Z,4.37
2018-07-25T20:03:23.180Z,6.37
2018-07-25T20:05:50.921Z,5.47
2018-07-25T20:08:18.535Z,4.67
2018-07-25T20:10:46.344Z,6.53
2018-07-25T20:13:14.308Z,5.00
2018-07-25T20:15:47.857Z,5.10
2018-07-25T20:18:15.581Z,4.30
2018-07-25T20:20:44.055Z,4.43
2018-07-25T20:23:11.948Z,4.90
2018-07-25T20:25:39.708Z,4.40
2018-07-25T20:28:07.823Z,5.67
2018-07-25T20:30:35.638Z,4.17
2018-07-25T20:33:03.371Z,8.80
2018-07-25T20:35:31.202Z,8.80
2018-07-25T20:38:05.886Z,5.70
2018-07-25T20:40:33.639Z,7.53
2018-07-25T20:43:01.513Z,6.20
2018-07-25T20:45:29.297Z,5.73
2018-07-25T20:47:56.975Z,5.00
2018-07-25T20:50:25.547Z,10.97
2018-07-25T20:52:53.242Z,5.37
2018-07-25T20:55:21.129Z,5.77
2018-07-25T20:57:48.814Z,7.83
2018-07-25T21:00:19.239Z,6.60
2018-07-25T21:02:46.947Z,5.90
2018-07-25T21:05:14.771Z,7.40
2018-07-25T21:07:42.634Z,5.13
2018-07-25T21:10:10.263Z,7.77
2018-07-25T21:12:37.942Z,7.63
2018-07-25T21:15:05.679Z,16.07
2018-07-25T21:17:33.404Z,7.23
2018-07-25T21:20:01.070Z,8.10
2018-07-25T21:22:28.734Z,5.67
2018-07-25T21:24:56.453Z,6.10
2018-07-25T21:27:24.240Z,9.23
2018-07-25T21:29:51.874Z,9.37
2018-07-25T21:32:19.524Z,6.63
2018-07-25T21:34:47.568Z,5.70
2018-07-25T21:37:15.201Z,5.83
2018-07-25T21:39:42.996Z,6.57
2018-07-25T21:42:10.670Z,5.73
2018-07-25T21:44:38.684Z,5.83
2018-07-25T21:47:06.501Z,7.53
2018-07-25T21:49:34.211Z,12.50
2018-07-25T21:52:02.065Z,18.30
2018-07-25T21:54:29.718Z,15.30
2018-07-25T21:56:57.635Z,7.03
2018-07-25T21:59:25.415Z,7.60
2018-07-25T22:01:53.659Z,14.30
2018-07-25T22:04:21.257Z,9.10
2018-07-25T22:06:48.933Z,13.00
2018-07-25T22:09:16.608Z,11.63
2018-07-25T22:11:44.249Z,13.40
2018-07-25T22:14:11.873Z,22.60
2018-07-25T22:16:39.858Z,11.83
2018-07-25T22:19:07.657Z,9.43
2018-07-25T22:21:35.292Z,8.83
2018-07-25T22:24:03.049Z,10.70
2018-07-25T22:26:30.701Z,5.83
2018-07-25T22:28:58.633Z,5.87
2018-07-25T22:31:26.314Z,8.33
2018-07-25T22:33:54.055Z,6.50
2018-07-25T22:36:21.971Z,6.80
2018-07-25T22:38:49.569Z,7.73
2018-07-25T22:41:17.258Z,6.57
2018-07-25T22:43:44.876Z,9.03
2018-07-25T22:46:12.634Z,17.70
2018-07-25T22:48:40.340Z,10.30
2018-07-25T22:51:07.952Z,20.43
2018-07-25T22:53:35.570Z,15.60
2018-07-25T22:56:03.202Z,18.20
2018-07-25T22:58:30.831Z,25.03
2018-07-25T23:00:58.718Z,16.70
2018-07-25T23:03:26.484Z,18.20
2018-07-25T23:05:54.105Z,13.63
2018-07-25T23:08:22.011Z,12.73
2018-07-25T23:10:49.618Z,12.23
2018-07-25T23:13:17.258Z,14.00
2018-07-25T23:15:44.853Z,10.73
2018-07-25T23:18:12.635Z,12.40
2018-07-25T23:20:40.265Z,11.80
2018-07-25T23:23:07.934Z,15.20
2018-07-25T23:25:35.659Z,10.97
2018-07-25T23:28:03.384Z,13.20
2018-07-25T23:30:31.040Z,9.77
2018-07-25T23:33:05.486Z,10.17
2018-07-25T23:35:33.159Z,16.33
2018-07-25T23:38:00.780Z,12.80
2018-07-25T23:40:28.321Z,15.73
2018-07-25T23:42:55.947Z,14.20
2018-07-25T23:45:23.687Z,11.60
2018-07-25T23:47:51.329Z,12.63
2018-07-25T23:50:19.019Z,13.07
2018-07-25T23:52:46.622Z,11.73
2018-07-25T23:55:14.257Z,9.00
2018-07-25T23:57:41.969Z,12.83
